首页
METAR-TAF:

METAR-TAF

机场 :

奥斯陆加勒穆恩机场

奥斯陆, 挪威

纬度: 60-12N, 经度: 011-05E, 海拔: 208米

当前天气观测

该预报发布于28分钟前的13:50 UTC
风速12节,风向西转西南,有时为25节阵风,在南转西南西转西北之间变化
温度 19°C
湿度 30%
气压 1004 hPa
能见度10公里或以上
1500米以下无云,无积雨云

METAR: ENGM 191350Z 24012G25KT 200V290 CAVOK 19/01 Q1004 NOSIG

时间: 16:18 (14:18 UTC)

预报

预报有效从19日的 12点(UTC)到 20日的 12点(UTC)
风速12节,风向西
能见度10公里或以上
少量云层高于4000英尺
散云层高于7000英尺
短暂存在
从 19日的 12点(UTC)到 19日的 18点(UTC)
风速15节,风向西转西南,有时为25节阵风
成为
从 20日的 00点(UTC)到 20日的 03点(UTC)
风速8节,风向南转西南

TAF: ENGM 1912/2012 26012KT 9999 FEW040 SCT070 TEMPO 1912/1918 25015G25KT BECMG 2000/2003 20008KT

超过4000个机场的气象观测和天气预报(METAR&TAF报告)。

可查询的气象台以黄色和红色小点在地图上表示。

将鼠标移到小点上方,可查看气象台名称。

然后点击查看天气观测和预报。

如需切换地图:点击带黑十字的绿色按钮放大地图;点击带横线的绿色按钮缩小地图;或者点击绿色箭头查看邻近地区的地图。


METAR-TAF: